Time;durP1;ratioP1;P1;durP2;ratioP2;P2;SDS_P1;SDS_P2;PMS_P1;PMS_P2;Temp;Humidity;BMP_temperature;BMP_pressure;BME280_temperature;BME280_humidity;BME280_pressure;Samples;Min_cycle;Max_cycle;Signal;HPM_P1;HPM_P2
2022/03/27 00:02:18;;;;;;;27.17;13.75;;;;;;;;;;5014312;28;20045;-78
2022/03/27 00:04:43;;;;;;;23.58;12.98;;;;;;;;;;5015034;28;20040;-79
2022/03/27 00:07:08;;;;;;;24.25;13.40;;;;;;;;;;5012776;28;20474;-79
2022/03/27 00:09:34;;;;;;;22.65;12.63;;;;;;;;;;5014206;28;20026;-79
2022/03/27 00:11:59;;;;;;;20.25;11.35;;;;;;;;;;5013971;28;20429;-79
2022/03/27 00:14:25;;;;;;;25.10;12.57;;;;;;;;;;5029354;28;20015;-80
2022/03/27 00:16:50;;;;;;;21.70;12.02;;;;;;;;;;5029336;28;20325;-79
2022/03/27 00:19:16;;;;;;;22.73;12.05;;;;;;;;;;5013856;28;20040;-79
2022/03/27 00:21:42;;;;;;;18.65;10.70;;;;;;;;;;5013798;28;20105;-77
2022/03/27 00:24:07;;;;;;;18.52;10.13;;;;;;;;;;5014171;28;20493;-77
2022/03/27 00:26:33;;;;;;;18.08;10.07;;;;;;;;;;5013706;28;20095;-78
2022/03/27 00:28:58;;;;;;;15.73;9.82;;;;;;;;;;5013808;28;20067;-77
2022/03/27 00:31:23;;;;;;;16.88;9.68;;;;;;;;;;5013908;28;20097;-77
2022/03/27 00:33:49;;;;;;;17.25;9.32;;;;;;;;;;5013625;28;20093;-78
2022/03/27 00:36:14;;;;;;;17.92;9.57;;;;;;;;;;5013688;28;20099;-79
2022/03/27 00:38:40;;;;;;;16.27;9.65;;;;;;;;;;5013610;28;20507;-78
2022/03/27 00:41:06;;;;;;;20.75;10.30;;;;;;;;;;5013729;28;20018;-78
2022/03/27 00:43:34;;;;;;;15.65;8.85;;;;;;;;;;5013554;28;20049;-77
2022/03/27 00:46:00;;;;;;;16.35;9.60;;;;;;;;;;5013636;28;20018;-77
2022/03/27 00:48:25;;;;;;;20.17;10.43;;;;;;;;;;5013441;28;20033;-78
2022/03/27 00:50:51;;;;;;;19.38;8.70;;;;;;;;;;5013479;28;20485;-78
2022/03/27 00:53:17;;;;;;;16.67;8.88;;;;;;;;;;5013274;28;20465;-77
2022/03/27 00:55:44;;;;;;;12.85;7.72;;;;;;;;;;5013453;28;20018;-79
2022/03/27 00:58:10;;;;;;;13.90;7.03;;;;;;;;;;5013311;28;20049;-78
2022/03/27 01:00:48;;;;;;;15.00;7.45;;;;;;;;;;5013589;28;20088;-79
2022/03/27 01:03:15;;;;;;;13.70;8.07;;;;;;;;;;5013792;28;20030;-78
2022/03/27 01:05:42;;;;;;;14.75;8.40;;;;;;;;;;5013297;28;20120;-78
2022/03/27 01:08:08;;;;;;;14.18;7.32;;;;;;;;;;5013309;28;20060;-78
2022/03/27 01:10:34;;;;;;;11.93;7.30;;;;;;;;;;5012166;28;20018;-78
2022/03/27 01:13:02;;;;;;;15.93;8.23;;;;;;;;;;5013458;28;20187;-77
2022/03/27 01:15:33;;;;;;;14.67;7.17;;;;;;;;;;5011887;28;20021;-78
2022/03/27 01:20:31;;;;;;;18.92;8.75;;;;;;;;;;4992201;28;19921;-85
2022/03/27 01:22:56;;;;;;;15.18;8.25;;;;;;;;;;4993547;28;20022;-85
2022/03/27 01:25:22;;;;;;;14.93;7.60;;;;;;;;;;4993690;28;20034;-83
2022/03/27 01:27:47;;;;;;;15.93;9.23;;;;;;;;;;4992200;28;20363;-85
2022/03/27 01:30:12;;;;;;;15.38;9.07;;;;;;;;;;4992093;28;20014;-82
2022/03/27 01:32:37;;;;;;;18.17;9.00;;;;;;;;;;4993093;28;20250;-85
2022/03/27 01:35:03;;;;;;;21.88;11.75;;;;;;;;;;4993238;28;20018;-84
2022/03/27 01:37:28;;;;;;;33.53;15.90;;;;;;;;;;4991759;28;20121;-85
2022/03/27 01:39:54;;;;;;;26.23;12.80;;;;;;;;;;4992963;28;20019;-85
2022/03/27 01:42:19;;;;;;;25.73;13.52;;;;;;;;;;4993090;28;20024;-84
2022/03/27 01:44:44;;;;;;;19.70;10.93;;;;;;;;;;4991841;28;20049;-85
2022/03/27 01:47:10;;;;;;;22.65;12.45;;;;;;;;;;4991678;28;20084;-84
2022/03/27 01:49:35;;;;;;;27.13;14.45;;;;;;;;;;4991756;28;20019;-84
2022/03/27 01:52:01;;;;;;;29.05;15.68;;;;;;;;;;4993242;28;20025;-85
2022/03/27 01:54:26;;;;;;;37.13;18.73;;;;;;;;;;4992960;28;20014;-85
2022/03/27 01:56:51;;;;;;;36.95;17.95;;;;;;;;;;4993029;28;20018;-85
2022/03/27 01:59:19;;;;;;;44.17;22.80;;;;;;;;;;4992933;28;20062;-85
2022/03/27 02:01:44;;;;;;;42.53;21.65;;;;;;;;;;4992748;28;20014;-85
2022/03/27 02:04:09;;;;;;;35.70;18.95;;;;;;;;;;4991557;28;20029;-85
2022/03/27 02:06:39;;;;;;;37.85;18.40;;;;;;;;;;4992886;28;20023;-85
2022/03/27 02:09:05;;;;;;;20.20;11.25;;;;;;;;;;4992609;28;20018;-83
2022/03/27 02:11:30;;;;;;;35.53;17.50;;;;;;;;;;4993175;28;20061;-83
2022/03/27 02:13:55;;;;;;;49.42;22.23;;;;;;;;;;4992624;28;20054;-85
2022/03/27 02:16:20;;;;;;;33.72;17.15;;;;;;;;;;4991314;28;20022;-84
2022/03/27 02:18:46;;;;;;;28.33;15.93;;;;;;;;;;4992267;28;20501;-85
2022/03/27 02:21:11;;;;;;;29.30;15.50;;;;;;;;;;4991974;28;20306;-85
2022/03/27 02:23:37;;;;;;;26.10;13.65;;;;;;;;;;4991052;28;20052;-84
2022/03/27 02:26:02;;;;;;;23.52;12.65;;;;;;;;;;4992330;28;20564;-84
2022/03/27 02:28:28;;;;;;;26.85;13.27;;;;;;;;;;4992347;28;20591;-84
2022/03/27 02:30:54;;;;;;;27.65;14.30;;;;;;;;;;4990965;28;20398;-85
2022/03/27 02:33:19;;;;;;;29.40;15.20;;;;;;;;;;4992320;28;20053;-84
2022/03/27 02:35:45;;;;;;;29.02;15.48;;;;;;;;;;4991256;28;20046;-84
2022/03/27 02:38:10;;;;;;;31.27;15.57;;;;;;;;;;4991039;28;20482;-84
2022/03/27 02:40:36;;;;;;;30.30;15.38;;;;;;;;;;4991183;28;20023;-83
2022/03/27 02:43:01;;;;;;;36.10;16.85;;;;;;;;;;4991105;28;20497;-84
2022/03/27 02:45:27;;;;;;;28.02;15.05;;;;;;;;;;4992198;28;20026;-85
2022/03/27 02:47:53;;;;;;;30.15;14.15;;;;;;;;;;4991015;28;20059;-85
2022/03/27 02:50:19;;;;;;;22.00;12.90;;;;;;;;;;4992476;28;20025;-85
2022/03/27 02:52:44;;;;;;;27.08;15.77;;;;;;;;;;4992153;28;20015;-85
2022/03/27 02:55:10;;;;;;;31.70;16.92;;;;;;;;;;4990922;28;20330;-84
2022/03/27 02:57:36;;;;;;;50.88;22.40;;;;;;;;;;4991235;28;20030;-85
2022/03/27 03:00:01;;;;;;;29.08;16.52;;;;;;;;;;4990915;28;20173;-85
2022/03/27 03:02:26;;;;;;;26.50;13.75;;;;;;;;;;4991130;28;20022;-85
2022/03/27 03:04:52;;;;;;;32.35;15.05;;;;;;;;;;4992483;28;20026;-85
2022/03/27 03:07:20;;;;;;;29.13;15.70;;;;;;;;;;4991877;28;20019;-84
2022/03/27 03:09:46;;;;;;;36.00;18.88;;;;;;;;;;4992222;28;20026;-85
2022/03/27 03:12:11;;;;;;;29.33;14.40;;;;;;;;;;4992254;28;20018;-84
2022/03/27 03:14:36;;;;;;;30.58;15.35;;;;;;;;;;4992063;28;20056;-84
2022/03/27 03:17:01;;;;;;;31.35;16.38;;;;;;;;;;4990905;28;20022;-85
2022/03/27 03:19:27;;;;;;;25.55;14.43;;;;;;;;;;4990622;28;20026;-84
2022/03/27 03:21:55;;;;;;;26.52;13.70;;;;;;;;;;4990606;28;20085;-85
2022/03/27 03:24:20;;;;;;;26.35;12.75;;;;;;;;;;4991925;28;20031;-84
2022/03/27 03:26:47;;;;;;;22.70;12.27;;;;;;;;;;4991714;28;20033;-85
2022/03/27 03:29:13;;;;;;;21.95;12.75;;;;;;;;;;4990767;28;20018;-84
2022/03/27 03:31:39;;;;;;;24.42;12.80;;;;;;;;;;4991797;28;20102;-85
2022/03/27 03:34:04;;;;;;;25.42;12.48;;;;;;;;;;4994225;28;20054;-82
2022/03/27 03:36:29;;;;;;;24.27;12.25;;;;;;;;;;4995403;28;20027;-84
2022/03/27 03:38:54;;;;;;;21.52;11.70;;;;;;;;;;4995173;28;20022;-84
2022/03/27 03:41:19;;;;;;;23.80;11.77;;;;;;;;;;4995359;28;20476;-84
2022/03/27 03:43:46;;;;;;;25.15;13.23;;;;;;;;;;4993882;28;20418;-85
2022/03/27 03:46:11;;;;;;;23.35;13.18;;;;;;;;;;4993878;28;20442;-84
2022/03/27 03:48:36;;;;;;;24.45;12.90;;;;;;;;;;4995326;28;20025;-84
2022/03/27 03:51:02;;;;;;;23.70;11.38;;;;;;;;;;4995216;28;20054;-84
2022/03/27 03:53:27;;;;;;;21.77;12.35;;;;;;;;;;4993758;28;20022;-84
2022/03/27 03:55:52;;;;;;;26.48;12.77;;;;;;;;;;4995430;28;20022;-84
2022/03/27 03:58:26;;;;;;;25.73;12.07;;;;;;;;;;4994242;28;20496;-84
2022/03/27 04:00:52;;;;;;;19.80;10.80;;;;;;;;;;4995480;28;20034;-84
2022/03/27 04:03:17;;;;;;;18.75;11.10;;;;;;;;;;4995019;28;20018;-84
2022/03/27 04:05:42;;;;;;;22.50;12.02;;;;;;;;;;4994837;28;20089;-83
2022/03/27 04:08:07;;;;;;;23.15;11.50;;;;;;;;;;4994629;28;20041;-84
2022/03/27 04:10:33;;;;;;;18.88;10.48;;;;;;;;;;4994855;28;20026;-83
2022/03/27 04:13:01;;;;;;;25.20;13.45;;;;;;;;;;4994572;28;20030;-84
2022/03/27 04:15:26;;;;;;;19.83;11.50;;;;;;;;;;4995220;28;20029;-83
2022/03/27 04:17:51;;;;;;;20.30;11.00;;;;;;;;;;4994620;28;20485;-83
2022/03/27 04:20:17;;;;;;;21.67;11.70;;;;;;;;;;4994613;28;20109;-84
2022/03/27 04:22:43;;;;;;;21.92;11.82;;;;;;;;;;4994359;28;20029;-83
2022/03/27 04:25:09;;;;;;;19.33;10.18;;;;;;;;;;4994587;28;20023;-83
2022/03/27 04:27:34;;;;;;;25.00;11.45;;;;;;;;;;4993161;28;20026;-83
2022/03/27 04:30:00;;;;;;;17.75;10.15;;;;;;;;;;4994607;28;20350;-83
2022/03/27 04:32:25;;;;;;;23.48;11.82;;;;;;;;;;4994462;28;20046;-84
2022/03/27 04:34:50;;;;;;;23.30;10.65;;;;;;;;;;4994895;28;20033;-82
2022/03/27 04:37:18;;;;;;;20.30;11.20;;;;;;;;;;4994282;28;20100;-83
2022/03/27 04:39:43;;;;;;;19.43;9.20;;;;;;;;;;4994443;28;20022;-84
2022/03/27 04:42:12;;;;;;;16.02;9.45;;;;;;;;;;4992857;28;20499;-82
2022/03/27 04:44:38;;;;;;;17.75;9.80;;;;;;;;;;4992704;28;20052;-83
2022/03/27 04:47:03;;;;;;;16.10;9.15;;;;;;;;;;4994089;28;20461;-82
2022/03/27 04:49:28;;;;;;;16.70;8.98;;;;;;;;;;4992774;28;20022;-85
2022/03/27 04:51:53;;;;;;;20.65;10.05;;;;;;;;;;4993789;28;20106;-83
2022/03/27 04:54:18;;;;;;;16.83;9.10;;;;;;;;;;4992728;28;20045;-83
2022/03/27 04:56:44;;;;;;;17.48;9.52;;;;;;;;;;4993898;28;20250;-83
2022/03/27 04:59:09;;;;;;;17.48;9.60;;;;;;;;;;4994014;28;20141;-84
2022/03/27 05:01:35;;;;;;;19.33;10.00;;;;;;;;;;4993126;28;20505;-84
2022/03/27 05:04:00;;;;;;;19.05;9.95;;;;;;;;;;4994241;28;20025;-82
2022/03/27 05:06:25;;;;;;;20.23;9.32;;;;;;;;;;4993960;28;20560;-84
2022/03/27 05:08:51;;;;;;;21.73;11.43;;;;;;;;;;4992934;28;20026;-83
2022/03/27 05:11:16;;;;;;;16.52;9.20;;;;;;;;;;4994108;28;20022;-85
2022/03/27 05:13:41;;;;;;;16.40;9.30;;;;;;;;;;4993874;28;20463;-84
2022/03/27 05:16:07;;;;;;;21.02;9.93;;;;;;;;;;4993939;28;20014;-82
2022/03/27 05:18:32;;;;;;;16.33;9.52;;;;;;;;;;4992149;28;20409;-83
2022/03/27 05:20:57;;;;;;;15.80;8.80;;;;;;;;;;4993845;28;20019;-84
2022/03/27 05:23:22;;;;;;;18.58;9.80;;;;;;;;;;4992301;28;20500;-83
2022/03/27 05:25:50;;;;;;;16.20;8.57;;;;;;;;;;4993548;28;20014;-81
2022/03/27 05:28:16;;;;;;;18.13;8.30;;;;;;;;;;4993583;28;20026;-84
2022/03/27 05:30:43;;;;;;;16.50;9.02;;;;;;;;;;4993342;28;20793;-82
2022/03/27 05:33:08;;;;;;;15.50;8.52;;;;;;;;;;4993488;28;20026;-82
2022/03/27 05:35:34;;;;;;;18.25;9.43;;;;;;;;;;4993371;28;20477;-82
2022/03/27 05:37:59;;;;;;;14.43;8.85;;;;;;;;;;4993344;28;20433;-82
2022/03/27 05:40:25;;;;;;;15.55;9.07;;;;;;;;;;4993424;28;20018;-82
2022/03/27 05:42:50;;;;;;;16.52;8.98;;;;;;;;;;4993405;28;20478;-84
2022/03/27 05:45:16;;;;;;;14.93;8.75;;;;;;;;;;4993569;28;20056;-83
2022/03/27 05:47:42;;;;;;;16.77;9.23;;;;;;;;;;4992357;28;20520;-80
2022/03/27 05:50:08;;;;;;;17.63;8.57;;;;;;;;;;4993366;28;20072;-82
2022/03/27 05:52:34;;;;;;;17.25;9.25;;;;;;;;;;4993402;28;20018;-82
2022/03/27 05:54:59;;;;;;;16.15;9.68;;;;;;;;;;4992984;28;20092;-84
2022/03/27 05:57:24;;;;;;;17.15;9.60;;;;;;;;;;4991421;28;20072;-81
2022/03/27 05:59:49;;;;;;;17.45;8.93;;;;;;;;;;4993829;28;20022;-80
2022/03/27 06:02:15;;;;;;;18.02;10.10;;;;;;;;;;4993571;28;20265;-82
2022/03/27 06:04:41;;;;;;;20.70;9.15;;;;;;;;;;4992565;28;20076;-81
2022/03/27 06:07:06;;;;;;;16.42;9.93;;;;;;;;;;4993675;28;20445;-83
2022/03/27 06:09:33;;;;;;;15.85;9.18;;;;;;;;;;4993699;28;20420;-81
2022/03/27 06:11:58;;;;;;;17.20;8.88;;;;;;;;;;4993373;28;20065;-81
2022/03/27 06:14:23;;;;;;;15.00;9.13;;;;;;;;;;4991890;28;20061;-81
2022/03/27 06:16:49;;;;;;;17.42;10.07;;;;;;;;;;4993317;28;20022;-82
2022/03/27 06:19:14;;;;;;;15.70;9.02;;;;;;;;;;4991723;28;20030;-81
2022/03/27 06:21:39;;;;;;;14.68;8.65;;;;;;;;;;4992451;28;20034;-81
2022/03/27 06:24:05;;;;;;;16.77;8.65;;;;;;;;;;4994590;28;20114;-82
2022/03/27 06:26:30;;;;;;;16.80;8.43;;;;;;;;;;4996699;28;20589;-82
2022/03/27 06:28:55;;;;;;;18.67;9.60;;;;;;;;;;4997913;28;20117;-82
2022/03/27 06:31:21;;;;;;;14.90;8.73;;;;;;;;;;4995517;28;20474;-83
2022/03/27 06:33:46;;;;;;;16.35;8.32;;;;;;;;;;4994759;28;20450;-81
2022/03/27 06:36:12;;;;;;;18.98;9.88;;;;;;;;;;4996798;28;20021;-81
2022/03/27 06:38:38;;;;;;;15.68;8.60;;;;;;;;;;4994842;28;20031;-81
2022/03/27 06:41:03;;;;;;;16.27;8.80;;;;;;;;;;4997791;28;20142;-81
2022/03/27 06:43:28;;;;;;;13.98;7.80;;;;;;;;;;4999309;28;20478;-81
2022/03/27 06:45:54;;;;;;;15.70;8.30;;;;;;;;;;5000985;28;20019;-81
2022/03/27 06:48:19;;;;;;;14.98;8.68;;;;;;;;;;5002021;28;20029;-79
2022/03/27 06:50:44;;;;;;;16.05;8.63;;;;;;;;;;4997689;28;20018;-81
2022/03/27 06:53:10;;;;;;;18.00;8.90;;;;;;;;;;4997273;28;20018;-82
2022/03/27 06:55:36;;;;;;;16.00;8.57;;;;;;;;;;4996629;28;20068;-82
2022/03/27 06:58:01;;;;;;;15.95;9.13;;;;;;;;;;4994641;28;20022;-82
2022/03/27 07:03:10;;;;;;;16.85;9.80;;;;;;;;;;4994280;28;20038;-81
2022/03/27 07:05:37;;;;;;;15.77;8.27;;;;;;;;;;4993948;28;20018;-79
2022/03/27 07:08:03;;;;;;;14.32;8.23;;;;;;;;;;4996933;28;20026;-82
2022/03/27 07:10:28;;;;;;;12.13;7.72;;;;;;;;;;5001180;28;20101;-80
2022/03/27 07:12:54;;;;;;;15.68;8.13;;;;;;;;;;4996640;28;20161;-80
2022/03/27 07:15:19;;;;;;;13.60;8.18;;;;;;;;;;4996529;28;20485;-80
2022/03/27 07:17:45;;;;;;;13.18;7.53;;;;;;;;;;4996404;28;20015;-80
2022/03/27 07:20:12;;;;;;;17.50;8.30;;;;;;;;;;5037213;22;20076;-77
2022/03/27 07:22:37;;;;;;;12.75;7.63;;;;;;;;;;5036015;28;20045;-79
2022/03/27 07:25:03;;;;;;;12.55;7.57;;;;;;;;;;5035813;28;20495;-77
2022/03/27 07:27:29;;;;;;;13.57;8.00;;;;;;;;;;5034231;28;20017;-77
2022/03/27 07:29:54;;;;;;;12.10;6.93;;;;;;;;;;5033974;28;20116;-79
2022/03/27 07:32:19;;;;;;;14.88;7.78;;;;;;;;;;5033326;28;20061;-79
2022/03/27 07:34:44;;;;;;;14.57;7.32;;;;;;;;;;5034799;28;20112;-79
2022/03/27 07:37:10;;;;;;;13.32;7.63;;;;;;;;;;5033313;28;20021;-80
2022/03/27 07:39:35;;;;;;;10.77;7.38;;;;;;;;;;5033372;28;20017;-78
2022/03/27 07:42:00;;;;;;;13.75;7.75;;;;;;;;;;5034565;28;20025;-80
2022/03/27 07:44:26;;;;;;;12.32;7.65;;;;;;;;;;5033063;28;20539;-77
2022/03/27 07:46:52;;;;;;;12.98;7.80;;;;;;;;;;5035714;28;20064;-78
2022/03/27 07:49:19;;;;;;;13.40;7.75;;;;;;;;;;5035973;28;20017;-79
2022/03/27 07:51:44;;;;;;;16.67;7.22;;;;;;;;;;5035874;28;20018;-78
2022/03/27 07:54:09;;;;;;;15.45;7.47;;;;;;;;;;5035833;28;20017;-77
2022/03/27 07:56:34;;;;;;;13.30;7.55;;;;;;;;;;5038505;28;20017;-80
2022/03/27 07:58:59;;;;;;;12.50;7.22;;;;;;;;;;5038998;28;20289;-77
2022/03/27 08:01:26;;;;;;;15.45;7.78;;;;;;;;;;5036362;28;20109;-79
2022/03/27 08:03:56;;;;;;;13.10;7.40;;;;;;;;;;5036889;28;20017;-79
2022/03/27 08:06:21;;;;;;;12.90;7.15;;;;;;;;;;5037818;28;20041;-77
2022/03/27 08:08:46;;;;;;;11.77;7.35;;;;;;;;;;5035443;28;20018;-79
2022/03/27 08:11:12;;;;;;;14.23;7.30;;;;;;;;;;5035520;28;20025;-79
2022/03/27 08:13:38;;;;;;;13.75;7.97;;;;;;;;;;5033722;28;20505;-77
2022/03/27 08:16:03;;;;;;;15.48;7.35;;;;;;;;;;5034168;28;20014;-78
2022/03/27 08:18:29;;;;;;;13.45;7.93;;;;;;;;;;5031767;28;20032;-78
2022/03/27 08:20:54;;;;;;;12.13;7.43;;;;;;;;;;5033643;28;20052;-77
2022/03/27 08:23:19;;;;;;;13.00;7.10;;;;;;;;;;5033725;28;20022;-77
2022/03/27 08:28:28;;;;;;;14.13;7.97;;;;;;;;;;5033476;28;20059;-79
2022/03/27 08:30:54;;;;;;;13.30;6.85;;;;;;;;;;5034088;28;20400;-78
2022/03/27 08:33:19;;;;;;;15.05;8.07;;;;;;;;;;5033007;28;20025;-77
2022/03/27 08:35:45;;;;;;;15.23;7.13;;;;;;;;;;5033330;28;20014;-77
2022/03/27 08:38:11;;;;;;;10.48;6.32;;;;;;;;;;5033368;28;20366;-78
2022/03/27 08:40:38;;;;;;;11.30;6.63;;;;;;;;;;5033453;28;20021;-79
2022/03/27 08:43:05;;;;;;;13.63;7.63;;;;;;;;;;5032987;28;20018;-81
2022/03/27 08:45:30;;;;;;;13.43;7.70;;;;;;;;;;5032953;28;20057;-78
2022/03/27 08:47:55;;;;;;;11.68;7.25;;;;;;;;;;5032850;28;20469;-78
2022/03/27 08:50:31;;;;;;;8.23;5.38;;;;;;;;;;5032956;28;20027;-79
2022/03/27 08:52:58;;;;;;;9.25;5.80;;;;;;;;;;5032727;28;20042;-79
2022/03/27 08:55:38;;;;;;;9.15;5.63;;;;;;;;;;5032856;28;20018;-78
2022/03/27 08:58:05;;;;;;;10.90;6.50;;;;;;;;;;5032904;28;20021;-78
2022/03/27 09:00:31;;;;;;;10.23;5.65;;;;;;;;;;5032487;28;20028;-78
2022/03/27 09:02:58;;;;;;;13.18;6.72;;;;;;;;;;5032582;28;20389;-79
2022/03/27 09:05:23;;;;;;;10.88;6.18;;;;;;;;;;5031317;28;20032;-80
2022/03/27 09:07:49;;;;;;;11.57;6.38;;;;;;;;;;5032484;28;20017;-79
2022/03/27 09:10:14;;;;;;;10.80;5.93;;;;;;;;;;5032356;28;20041;-80
2022/03/27 09:12:40;;;;;;;11.45;5.75;;;;;;;;;;5032350;28;20469;-78
2022/03/27 09:15:07;;;;;;;10.80;6.03;;;;;;;;;;5032784;28;20025;-79
2022/03/27 09:17:32;;;;;;;13.38;7.30;;;;;;;;;;5031201;28;20014;-79
2022/03/27 09:19:57;;;;;;;9.32;5.57;;;;;;;;;;5032454;28;20039;-78
2022/03/27 09:22:29;;;;;;;8.38;5.22;;;;;;;;;;5032127;28;20053;-78
2022/03/27 09:25:02;;;;;;;9.32;4.45;;;;;;;;;;5032438;28;20017;-79
2022/03/27 09:27:29;;;;;;;10.65;4.72;;;;;;;;;;5032009;28;20053;-79
2022/03/27 09:29:55;;;;;;;7.95;4.57;;;;;;;;;;5031656;28;20014;-78
2022/03/27 09:32:26;;;;;;;9.45;5.07;;;;;;;;;;5031644;28;20025;-78
2022/03/27 09:35:07;;;;;;;8.55;4.93;;;;;;;;;;5032330;28;20017;-79
2022/03/27 09:37:34;;;;;;;11.00;5.68;;;;;;;;;;5032013;28;20029;-77
2022/03/27 09:39:59;;;;;;;6.78;4.38;;;;;;;;;;5031909;28;20044;-79
2022/03/27 09:42:25;;;;;;;9.80;5.00;;;;;;;;;;5030440;28;20385;-80
2022/03/27 09:45:08;;;;;;;9.25;5.63;;;;;;;;;;5030743;28;20477;-79
2022/03/27 09:47:33;;;;;;;7.75;4.32;;;;;;;;;;5031969;28;20017;-78
2022/03/27 09:49:59;;;;;;;8.05;4.22;;;;;;;;;;5032006;28;20013;-78
2022/03/27 09:52:24;;;;;;;6.35;3.63;;;;;;;;;;5031594;28;20021;-78
2022/03/27 09:54:50;;;;;;;8.48;4.18;;;;;;;;;;5030736;28;20495;-79
2022/03/27 09:57:16;;;;;;;6.70;3.92;;;;;;;;;;5031610;28;20017;-78
2022/03/27 09:59:41;;;;;;;12.77;6.20;;;;;;;;;;5031894;28;20143;-79
2022/03/27 10:02:27;;;;;;;8.88;4.90;;;;;;;;;;5030350;28;20482;-79
2022/03/27 10:04:52;;;;;;;8.80;5.10;;;;;;;;;;5031662;28;20070;-79
2022/03/27 10:07:18;;;;;;;13.40;6.55;;;;;;;;;;5032144;28;20100;-79
2022/03/27 10:09:43;;;;;;;14.07;6.90;;;;;;;;;;5030287;28;20021;-80
2022/03/27 10:12:09;;;;;;;15.93;8.00;;;;;;;;;;5031571;28;20024;-79
2022/03/27 10:14:34;;;;;;;13.52;7.25;;;;;;;;;;5031223;28;20388;-80
2022/03/27 10:17:01;;;;;;;20.23;9.40;;;;;;;;;;5030122;28;20416;-80
2022/03/27 10:19:31;;;;;;;18.80;9.63;;;;;;;;;;5030921;28;20028;-79
2022/03/27 10:21:58;;;;;;;17.35;9.43;;;;;;;;;;5029165;28;20025;-79
2022/03/27 10:24:26;;;;;;;17.45;8.90;;;;;;;;;;5029037;28;20083;-80
2022/03/27 10:26:55;;;;;;;13.27;7.03;;;;;;;;;;5029404;28;20473;-79
2022/03/27 10:29:21;;;;;;;10.70;5.75;;;;;;;;;;5029376;28;20099;-78
2022/03/27 10:31:46;;;;;;;11.70;6.45;;;;;;;;;;5030517;28;20148;-80
2022/03/27 10:34:14;;;;;;;15.80;7.95;;;;;;;;;;5029043;28;20045;-78
2022/03/27 10:36:56;;;;;;;12.02;6.22;;;;;;;;;;5030430;28;20018;-79
2022/03/27 10:39:29;;;;;;;8.25;5.10;;;;;;;;;;5030353;28;20572;-79
2022/03/27 10:42:04;;;;;;;7.32;4.75;;;;;;;;;;5029729;28;20052;-80
2022/03/27 10:44:39;;;;;;;11.10;5.80;;;;;;;;;;5034040;28;20033;-80
2022/03/27 10:47:14;;;;;;;9.20;5.45;;;;;;;;;;5033959;28;20032;-79
2022/03/27 10:49:59;;;;;;;8.80;5.53;;;;;;;;;;5034079;28;20120;-78
2022/03/27 10:52:26;;;;;;;6.78;4.60;;;;;;;;;;5033996;28;20026;-79
2022/03/27 10:55:11;;;;;;;9.00;5.20;;;;;;;;;;5033796;28;20077;-77
2022/03/27 10:57:47;;;;;;;8.80;5.78;;;;;;;;;;5034163;28;20018;-78
2022/03/27 11:00:13;;;;;;;10.20;4.75;;;;;;;;;;5033819;28;20017;-79
2022/03/27 11:02:49;;;;;;;7.18;4.45;;;;;;;;;;5032349;28;20031;-78
2022/03/27 11:05:36;;;;;;;8.32;4.45;;;;;;;;;;5033833;28;20028;-80
2022/03/27 11:08:16;;;;;;;8.48;5.43;;;;;;;;;;5033480;28;20020;-79
2022/03/27 11:10:42;;;;;;;7.40;4.80;;;;;;;;;;5032320;28;20055;-79
2022/03/27 11:13:40;;;;;;;6.28;4.30;;;;;;;;;;5033486;28;20456;-80
2022/03/27 11:16:15;;;;;;;7.88;4.30;;;;;;;;;;5010596;28;20029;-80
2022/03/27 11:18:44;;;;;;;8.07;4.38;;;;;;;;;;4977545;28;1614705;-80
2022/03/27 11:21:11;;;;;;;6.82;4.40;;;;;;;;;;5033440;28;20120;-79
2022/03/27 11:23:37;;;;;;;6.90;4.45;;;;;;;;;;5034913;28;20013;-80
2022/03/27 11:26:03;;;;;;;7.18;4.20;;;;;;;;;;5034642;28;20021;-79
2022/03/27 11:28:47;;;;;;;7.13;3.75;;;;;;;;;;5034473;28;20063;-81
2022/03/27 11:31:12;;;;;;;11.40;4.53;;;;;;;;;;5034643;28;20102;-80
2022/03/27 11:33:38;;;;;;;8.20;4.53;;;;;;;;;;5035008;28;20017;-80
2022/03/27 11:36:09;;;;;;;7.57;4.60;;;;;;;;;;5034828;28;20350;-81
2022/03/27 11:38:35;;;;;;;6.38;4.15;;;;;;;;;;5034659;28;20097;-79
2022/03/27 11:41:19;;;;;;;6.97;3.97;;;;;;;;;;5034371;28;20135;-79
2022/03/27 11:43:44;;;;;;;6.18;3.85;;;;;;;;;;5034204;28;20401;-80
2022/03/27 11:46:19;;;;;;;12.17;4.73;;;;;;;;;;5034419;28;20035;-81
2022/03/27 11:48:51;;;;;;;7.25;3.78;;;;;;;;;;5034730;28;20279;-80
2022/03/27 11:51:17;;;;;;;7.72;4.68;;;;;;;;;;5033993;28;20097;-78
2022/03/27 11:53:42;;;;;;;5.88;3.47;;;;;;;;;;5031377;28;20021;-79
2022/03/27 11:56:08;;;;;;;6.40;3.80;;;;;;;;;;5034232;28;20017;-79
2022/03/27 11:58:37;;;;;;;6.07;3.65;;;;;;;;;;5034152;28;20025;-78
2022/03/27 12:01:08;;;;;;;5.85;3.00;;;;;;;;;;5033884;28;20362;-79
2022/03/27 12:03:33;;;;;;;4.95;3.13;;;;;;;;;;5032621;28;20025;-78
2022/03/27 12:06:06;;;;;;;5.47;3.13;;;;;;;;;;5032477;28;20029;-79
2022/03/27 12:08:32;;;;;;;5.10;3.13;;;;;;;;;;5033960;28;20066;-80
2022/03/27 12:11:04;;;;;;;5.85;3.22;;;;;;;;;;5033775;28;20071;-80
2022/03/27 12:13:33;;;;;;;5.80;3.22;;;;;;;;;;5033671;28;20014;-80
2022/03/27 12:15:59;;;;;;;6.93;3.70;;;;;;;;;;5034134;28;20021;-79
2022/03/27 12:18:34;;;;;;;5.63;3.58;;;;;;;;;;5033496;28;20079;-81
2022/03/27 12:21:02;;;;;;;6.25;4.00;;;;;;;;;;5033677;28;20036;-80
2022/03/27 12:23:29;;;;;;;5.53;3.28;;;;;;;;;;5033435;28;20201;-79
2022/03/27 12:32:05;;;;;;;6.35;4.15;;;;;;;;;;5033343;28;20033;-81
2022/03/27 12:34:30;;;;;;;5.55;3.75;;;;;;;;;;5033946;28;20093;-80
2022/03/27 12:37:09;;;;;;;7.18;3.85;;;;;;;;;;5033291;28;20025;-79
2022/03/27 12:39:36;;;;;;;6.90;4.28;;;;;;;;;;5033270;28;20049;-79
2022/03/27 12:42:01;;;;;;;7.43;4.20;;;;;;;;;;5033008;28;20024;-79
2022/03/27 12:44:45;;;;;;;9.73;4.17;;;;;;;;;;5033010;28;20025;-80
2022/03/27 12:47:10;;;;;;;6.05;3.53;;;;;;;;;;5033014;28;20025;-80
2022/03/27 12:49:48;;;;;;;11.30;6.30;;;;;;;;;;5033102;28;20438;-80
2022/03/27 12:52:14;;;;;;;10.68;4.88;;;;;;;;;;5032911;28;20354;-80
2022/03/27 12:54:59;;;;;;;16.48;10.02;;;;;;;;;;5031587;28;20024;-79
2022/03/27 12:57:25;;;;;;;17.48;11.05;;;;;;;;;;5032215;28;20075;-80
2022/03/27 12:59:51;;;;;;;5.40;3.33;;;;;;;;;;5031383;28;20025;-81
2022/03/27 13:02:30;;;;;;;9.55;6.20;;;;;;;;;;5033628;28;20033;-79
2022/03/27 13:05:02;;;;;;;16.23;10.25;;;;;;;;;;5031201;28;20036;-79
2022/03/27 13:07:46;;;;;;;17.20;11.05;;;;;;;;;;5032188;28;20108;-80
2022/03/27 13:10:11;;;;;;;22.35;11.63;;;;;;;;;;5032576;28;20022;-80
2022/03/27 13:12:37;;;;;;;17.05;11.43;;;;;;;;;;5032164;28;20027;-81
2022/03/27 13:15:02;;;;;;;19.25;12.23;;;;;;;;;;5032485;28;20144;-80
2022/03/27 13:17:27;;;;;;;10.93;6.85;;;;;;;;;;5032517;28;20036;-80
2022/03/27 13:19:53;;;;;;;11.73;7.37;;;;;;;;;;5032484;28;20489;-80
2022/03/27 13:22:18;;;;;;;9.23;5.90;;;;;;;;;;5032379;28;20018;-79
2022/03/27 13:24:49;;;;;;;8.80;4.32;;;;;;;;;;5032107;28;20489;-80
2022/03/27 13:27:15;;;;;;;8.77;4.68;;;;;;;;;;5032259;28;20029;-80
2022/03/27 13:29:40;;;;;;;7.00;4.00;;;;;;;;;;5032045;28;20508;-79
2022/03/27 13:32:07;;;;;;;7.90;4.57;;;;;;;;;;5032131;28;20048;-79
2022/03/27 13:34:32;;;;;;;7.53;5.00;;;;;;;;;;5032172;28;20257;-80
2022/03/27 13:36:58;;;;;;;20.30;11.18;;;;;;;;;;5030810;28;20021;-80
2022/03/27 13:39:24;;;;;;;13.07;7.67;;;;;;;;;;5032203;28;20365;-79
2022/03/27 13:44:35;;;;;;;12.70;8.18;;;;;;;;;;5032196;28;20032;-79
2022/03/27 13:47:02;;;;;;;9.30;6.15;;;;;;;;;;5030613;28;20472;-80
2022/03/27 13:49:27;;;;;;;11.95;5.63;;;;;;;;;;5031997;28;20057;-80
2022/03/27 13:51:53;;;;;;;8.17;4.53;;;;;;;;;;5031941;28;20056;-80
2022/03/27 13:54:19;;;;;;;9.90;6.20;;;;;;;;;;5032522;28;20101;-82
2022/03/27 13:56:45;;;;;;;7.72;4.82;;;;;;;;;;5031318;28;20018;-80
2022/03/27 13:59:11;;;;;;;5.22;3.33;;;;;;;;;;5031968;28;20020;-80
2022/03/27 14:01:37;;;;;;;7.20;4.25;;;;;;;;;;5031854;28;20040;-82
2022/03/27 14:04:03;;;;;;;5.82;3.78;;;;;;;;;;5030354;28;20472;-80
2022/03/27 14:06:28;;;;;;;4.60;2.65;;;;;;;;;;5031629;28;20022;-80
2022/03/27 14:08:53;;;;;;;6.20;3.70;;;;;;;;;;5031288;28;20030;-81
2022/03/27 14:11:18;;;;;;;9.50;3.73;;;;;;;;;;5030206;28;20025;-81
2022/03/27 14:13:44;;;;;;;7.95;3.70;;;;;;;;;;5031257;28;20369;-81
2022/03/27 14:16:09;;;;;;;6.97;3.45;;;;;;;;;;5031155;28;20555;-80
2022/03/27 14:18:34;;;;;;;5.90;3.00;;;;;;;;;;5031185;28;20401;-80
2022/03/27 14:20:59;;;;;;;10.57;4.27;;;;;;;;;;5031745;28;20104;-81
2022/03/27 14:23:24;;;;;;;12.73;3.57;;;;;;;;;;5031326;28;20104;-80
2022/03/27 14:25:50;;;;;;;6.47;3.40;;;;;;;;;;5031439;28;20337;-80
2022/03/27 14:28:15;;;;;;;7.07;3.57;;;;;;;;;;5031133;28;20267;-80
2022/03/27 14:30:40;;;;;;;9.33;4.27;;;;;;;;;;5031236;28;20045;-81
2022/03/27 14:33:05;;;;;;;5.83;3.90;;;;;;;;;;5031251;28;20281;-81
2022/03/27 14:35:31;;;;;;;5.03;3.53;;;;;;;;;;5031480;28;20429;-81
2022/03/27 14:37:57;;;;;;;8.45;3.42;;;;;;;;;;5029981;28;20021;-81
2022/03/27 14:40:22;;;;;;;5.40;3.23;;;;;;;;;;5031055;28;20025;-82
2022/03/27 14:42:47;;;;;;;7.05;3.28;;;;;;;;;;5031175;28;20092;-82
2022/03/27 14:45:14;;;;;;;7.50;3.40;;;;;;;;;;5031538;28;20142;-81